sensor_id;sensor_type;location;lat;lon;timestamp;P1;durP1;ratioP1;P2;durP2;ratioP2
75603;SDS011;64187;51.010;13.792;2023-03-01T00:04:26;30.08;;;12.68;;
75603;SDS011;64187;51.010;13.792;2023-03-01T00:09:26;27.17;;;12.27;;
75603;SDS011;64187;51.010;13.792;2023-03-01T00:14:25;22.17;;;11.68;;
75603;SDS011;64187;51.010;13.792;2023-03-01T00:19:24;25.92;;;12.85;;
75603;SDS011;64187;51.010;13.792;2023-03-01T00:24:23;29.08;;;12.75;;
75603;SDS011;64187;51.010;13.792;2023-03-01T00:29:23;23.23;;;12.23;;
75603;SDS011;64187;51.010;13.792;2023-03-01T00:34:22;27.25;;;13.43;;
75603;SDS011;64187;51.010;13.792;2023-03-01T00:39:21;35.38;;;14.25;;
75603;SDS011;64187;51.010;13.792;2023-03-01T00:44:20;27.70;;;13.80;;
75603;SDS011;64187;51.010;13.792;2023-03-01T00:49:20;24.30;;;12.25;;
75603;SDS011;64187;51.010;13.792;2023-03-01T00:54:20;25.60;;;13.18;;
75603;SDS011;64187;51.010;13.792;2023-03-01T00:59:19;29.17;;;12.65;;
75603;SDS011;64187;51.010;13.792;2023-03-01T01:04:18;25.15;;;12.07;;
75603;SDS011;64187;51.010;13.792;2023-03-01T01:09:17;31.13;;;13.82;;
75603;SDS011;64187;51.010;13.792;2023-03-01T01:14:17;27.50;;;12.77;;
75603;SDS011;64187;51.010;13.792;2023-03-01T01:19:16;27.42;;;14.10;;
75603;SDS011;64187;51.010;13.792;2023-03-01T01:24:15;27.20;;;12.93;;
75603;SDS011;64187;51.010;13.792;2023-03-01T01:29:16;28.08;;;13.85;;
75603;SDS011;64187;51.010;13.792;2023-03-01T01:34:17;25.67;;;13.60;;
75603;SDS011;64187;51.010;13.792;2023-03-01T01:39:18;27.13;;;14.18;;
75603;SDS011;64187;51.010;13.792;2023-03-01T01:49:35;34.63;;;13.55;;
75603;SDS011;64187;51.010;13.792;2023-03-01T01:59:41;25.35;;;13.38;;
75603;SDS011;64187;51.010;13.792;2023-03-01T02:04:44;27.83;;;12.57;;
75603;SDS011;64187;51.010;13.792;2023-03-01T02:09:45;26.17;;;11.90;;
75603;SDS011;64187;51.010;13.792;2023-03-01T02:14:46;22.70;;;10.90;;
75603;SDS011;64187;51.010;13.792;2023-03-01T02:30:29;22.77;;;11.05;;
75603;SDS011;64187;51.010;13.792;2023-03-01T02:35:31;24.02;;;11.25;;
75603;SDS011;64187;51.010;13.792;2023-03-01T02:40:34;26.15;;;11.45;;
75603;SDS011;64187;51.010;13.792;2023-03-01T02:45:36;24.50;;;11.30;;
75603;SDS011;64187;51.010;13.792;2023-03-01T02:55:43;25.50;;;10.55;;
75603;SDS011;64187;51.010;13.792;2023-03-01T03:00:42;25.77;;;11.65;;
75603;SDS011;64187;51.010;13.792;2023-03-01T03:05:46;25.65;;;11.35;;
75603;SDS011;64187;51.010;13.792;2023-03-01T03:10:47;26.98;;;11.52;;
75603;SDS011;64187;51.010;13.792;2023-03-01T03:15:45;24.73;;;11.38;;
75603;SDS011;64187;51.010;13.792;2023-03-01T03:20:44;27.48;;;12.13;;
75603;SDS011;64187;51.010;13.792;2023-03-01T03:25:43;23.73;;;9.95;;
75603;SDS011;64187;51.010;13.792;2023-03-01T03:30:43;22.88;;;11.75;;
75603;SDS011;64187;51.010;13.792;2023-03-01T03:35:46;24.55;;;11.23;;
75603;SDS011;64187;51.010;13.792;2023-03-01T03:40:48;24.55;;;11.07;;
75603;SDS011;64187;51.010;13.792;2023-03-01T03:45:49;23.42;;;11.35;;
75603;SDS011;64187;51.010;13.792;2023-03-01T03:50:49;25.50;;;11.98;;
75603;SDS011;64187;51.010;13.792;2023-03-01T03:55:51;29.73;;;12.90;;
75603;SDS011;64187;51.010;13.792;2023-03-01T04:00:52;24.67;;;12.90;;
75603;SDS011;64187;51.010;13.792;2023-03-01T04:05:52;28.92;;;12.20;;
75603;SDS011;64187;51.010;13.792;2023-03-01T04:10:52;22.23;;;11.35;;
75603;SDS011;64187;51.010;13.792;2023-03-01T04:15:55;20.08;;;10.57;;
75603;SDS011;64187;51.010;13.792;2023-03-01T04:20:54;26.23;;;12.45;;
75603;SDS011;64187;51.010;13.792;2023-03-01T04:25:54;24.98;;;11.13;;
75603;SDS011;64187;51.010;13.792;2023-03-01T04:30:56;23.05;;;10.77;;
75603;SDS011;64187;51.010;13.792;2023-03-01T04:35:56;23.60;;;11.48;;
75603;SDS011;64187;51.010;13.792;2023-03-01T04:40:56;25.27;;;11.80;;
75603;SDS011;64187;51.010;13.792;2023-03-01T04:45:55;24.33;;;11.88;;
75603;SDS011;64187;51.010;13.792;2023-03-01T04:51:01;22.58;;;11.30;;
75603;SDS011;64187;51.010;13.792;2023-03-01T04:56:00;21.70;;;11.02;;
75603;SDS011;64187;51.010;13.792;2023-03-01T05:00:59;25.42;;;12.32;;
75603;SDS011;64187;51.010;13.792;2023-03-01T05:05:58;28.33;;;12.70;;
75603;SDS011;64187;51.010;13.792;2023-03-01T05:10:58;29.60;;;11.88;;
75603;SDS011;64187;51.010;13.792;2023-03-01T05:15:58;24.33;;;12.02;;
75603;SDS011;64187;51.010;13.792;2023-03-01T05:21:06;24.55;;;11.10;;
75603;SDS011;64187;51.010;13.792;2023-03-01T05:26:10;23.40;;;11.55;;
75603;SDS011;64187;51.010;13.792;2023-03-01T05:31:31;37.53;;;17.05;;
75603;SDS011;64187;51.010;13.792;2023-03-01T05:36:29;22.90;;;10.02;;
75603;SDS011;64187;51.010;13.792;2023-03-01T05:41:29;21.83;;;11.85;;
75603;SDS011;64187;51.010;13.792;2023-03-01T05:46:28;21.17;;;11.77;;
75603;SDS011;64187;51.010;13.792;2023-03-01T05:51:28;23.17;;;12.90;;
75603;SDS011;64187;51.010;13.792;2023-03-01T05:56:27;23.60;;;11.95;;
75603;SDS011;64187;51.010;13.792;2023-03-01T06:01:28;22.30;;;11.40;;
75603;SDS011;64187;51.010;13.792;2023-03-01T06:06:35;21.77;;;10.98;;
75603;SDS011;64187;51.010;13.792;2023-03-01T06:11:37;24.45;;;11.13;;
75603;SDS011;64187;51.010;13.792;2023-03-01T06:16:36;20.02;;;9.98;;
75603;SDS011;64187;51.010;13.792;2023-03-01T06:21:35;23.10;;;10.93;;
75603;SDS011;64187;51.010;13.792;2023-03-01T06:26:33;22.65;;;10.65;;
75603;SDS011;64187;51.010;13.792;2023-03-01T06:31:32;23.88;;;9.98;;
75603;SDS011;64187;51.010;13.792;2023-03-01T06:36:31;21.88;;;10.35;;
75603;SDS011;64187;51.010;13.792;2023-03-01T06:41:31;23.77;;;11.32;;
75603;SDS011;64187;51.010;13.792;2023-03-01T06:46:31;21.98;;;10.98;;
75603;SDS011;64187;51.010;13.792;2023-03-01T06:51:30;24.95;;;11.88;;
75603;SDS011;64187;51.010;13.792;2023-03-01T06:56:29;23.20;;;11.68;;
75603;SDS011;64187;51.010;13.792;2023-03-01T07:01:30;24.45;;;10.45;;
75603;SDS011;64187;51.010;13.792;2023-03-01T07:06:29;27.67;;;12.57;;
75603;SDS011;64187;51.010;13.792;2023-03-01T07:11:29;24.65;;;11.77;;
75603;SDS011;64187;51.010;13.792;2023-03-01T07:16:27;23.52;;;11.32;;
75603;SDS011;64187;51.010;13.792;2023-03-01T07:21:27;23.33;;;10.88;;
75603;SDS011;64187;51.010;13.792;2023-03-01T07:26:26;23.63;;;10.90;;
75603;SDS011;64187;51.010;13.792;2023-03-01T07:31:25;18.25;;;9.40;;
75603;SDS011;64187;51.010;13.792;2023-03-01T07:36:26;24.95;;;10.35;;
75603;SDS011;64187;51.010;13.792;2023-03-01T07:41:25;22.67;;;11.25;;
75603;SDS011;64187;51.010;13.792;2023-03-01T07:46:24;22.73;;;11.30;;
75603;SDS011;64187;51.010;13.792;2023-03-01T07:51:22;24.17;;;11.45;;
75603;SDS011;64187;51.010;13.792;2023-03-01T07:56:21;29.33;;;13.77;;
75603;SDS011;64187;51.010;13.792;2023-03-01T08:01:20;25.80;;;12.45;;
75603;SDS011;64187;51.010;13.792;2023-03-01T08:06:20;31.55;;;13.32;;
75603;SDS011;64187;51.010;13.792;2023-03-01T08:11:19;29.55;;;13.82;;
75603;SDS011;64187;51.010;13.792;2023-03-01T08:16:18;29.40;;;13.38;;
75603;SDS011;64187;51.010;13.792;2023-03-01T08:21:17;27.55;;;13.02;;
75603;SDS011;64187;51.010;13.792;2023-03-01T08:26:17;31.88;;;13.85;;
75603;SDS011;64187;51.010;13.792;2023-03-01T08:31:18;32.40;;;14.70;;
75603;SDS011;64187;51.010;13.792;2023-03-01T08:36:26;31.88;;;13.75;;
75603;SDS011;64187;51.010;13.792;2023-03-01T08:41:30;27.35;;;14.05;;
75603;SDS011;64187;51.010;13.792;2023-03-01T08:46:33;25.30;;;12.55;;
75603;SDS011;64187;51.010;13.792;2023-03-01T08:51:35;21.27;;;12.60;;
75603;SDS011;64187;51.010;13.792;2023-03-01T08:56:35;27.02;;;13.38;;
75603;SDS011;64187;51.010;13.792;2023-03-01T09:01:34;27.95;;;13.32;;
75603;SDS011;64187;51.010;13.792;2023-03-01T09:06:33;26.80;;;13.07;;
75603;SDS011;64187;51.010;13.792;2023-03-01T09:11:32;26.02;;;13.32;;
75603;SDS011;64187;51.010;13.792;2023-03-01T09:16:31;27.15;;;14.20;;
75603;SDS011;64187;51.010;13.792;2023-03-01T09:21:34;27.85;;;13.50;;
75603;SDS011;64187;51.010;13.792;2023-03-01T09:26:38;27.77;;;13.93;;
75603;SDS011;64187;51.010;13.792;2023-03-01T09:31:36;25.92;;;12.20;;
75603;SDS011;64187;51.010;13.792;2023-03-01T09:36:36;29.60;;;13.50;;
75603;SDS011;64187;51.010;13.792;2023-03-01T09:41:46;27.42;;;15.75;;
75603;SDS011;64187;51.010;13.792;2023-03-01T09:47:00;26.02;;;13.07;;
75603;SDS011;64187;51.010;13.792;2023-03-01T09:52:03;26.38;;;14.18;;
75603;SDS011;64187;51.010;13.792;2023-03-01T09:57:19;29.67;;;14.82;;
75603;SDS011;64187;51.010;13.792;2023-03-01T10:02:30;25.60;;;13.27;;
75603;SDS011;64187;51.010;13.792;2023-03-01T10:07:44;27.33;;;13.63;;
75603;SDS011;64187;51.010;13.792;2023-03-01T10:12:44;27.08;;;14.30;;
75603;SDS011;64187;51.010;13.792;2023-03-01T10:22:58;27.30;;;13.65;;
75603;SDS011;64187;51.010;13.792;2023-03-01T10:28:02;25.58;;;14.38;;
75603;SDS011;64187;51.010;13.792;2023-03-01T10:33:30;28.35;;;15.10;;
75603;SDS011;64187;51.010;13.792;2023-03-01T10:43:56;27.42;;;14.50;;
75603;SDS011;64187;51.010;13.792;2023-03-01T10:49:14;25.70;;;14.32;;
75603;SDS011;64187;51.010;13.792;2023-03-01T10:54:30;24.17;;;13.02;;
75603;SDS011;64187;51.010;13.792;2023-03-01T10:59:31;28.05;;;12.73;;
75603;SDS011;64187;51.010;13.792;2023-03-01T11:04:32;23.33;;;13.10;;
75603;SDS011;64187;51.010;13.792;2023-03-01T11:09:32;23.10;;;11.50;;
75603;SDS011;64187;51.010;13.792;2023-03-01T11:14:38;23.35;;;13.15;;
75603;SDS011;64187;51.010;13.792;2023-03-01T11:25:07;21.13;;;10.23;;
75603;SDS011;64187;51.010;13.792;2023-03-01T11:30:22;21.58;;;10.85;;
75603;SDS011;64187;51.010;13.792;2023-03-01T11:35:26;22.83;;;10.90;;
75603;SDS011;64187;51.010;13.792;2023-03-01T11:45:32;21.77;;;12.18;;
75603;SDS011;64187;51.010;13.792;2023-03-01T11:50:44;21.73;;;10.00;;
75603;SDS011;64187;51.010;13.792;2023-03-01T11:55:48;14.57;;;9.20;;
75603;SDS011;64187;51.010;13.792;2023-03-01T12:01:09;19.05;;;9.23;;
75603;SDS011;64187;51.010;13.792;2023-03-01T12:06:41;19.98;;;9.27;;
75603;SDS011;64187;51.010;13.792;2023-03-01T12:22:48;20.60;;;10.88;;
75603;SDS011;64187;51.010;13.792;2023-03-01T12:38:41;22.17;;;11.43;;
75603;SDS011;64187;51.010;13.792;2023-03-01T12:49:38;21.30;;;11.65;;
75603;SDS011;64187;51.010;13.792;2023-03-01T12:54:40;20.65;;;11.40;;
75603;SDS011;64187;51.010;13.792;2023-03-01T12:59:42;24.77;;;12.95;;
75603;SDS011;64187;51.010;13.792;2023-03-01T13:10:21;20.75;;;10.90;;
75603;SDS011;64187;51.010;13.792;2023-03-01T13:15:28;22.77;;;12.88;;
75603;SDS011;64187;51.010;13.792;2023-03-01T13:30:57;23.95;;;13.15;;
75603;SDS011;64187;51.010;13.792;2023-03-01T13:35:57;20.25;;;10.25;;
75603;SDS011;64187;51.010;13.792;2023-03-01T13:40:57;23.08;;;11.60;;
75603;SDS011;64187;51.010;13.792;2023-03-01T13:45:58;21.40;;;10.13;;
75603;SDS011;64187;51.010;13.792;2023-03-01T13:50:58;21.30;;;10.13;;
75603;SDS011;64187;51.010;13.792;2023-03-01T13:56:21;19.00;;;11.20;;
75603;SDS011;64187;51.010;13.792;2023-03-01T14:01:30;17.63;;;9.52;;
75603;SDS011;64187;51.010;13.792;2023-03-01T14:06:32;20.42;;;10.77;;
75603;SDS011;64187;51.010;13.792;2023-03-01T14:27:02;22.08;;;10.48;;
75603;SDS011;64187;51.010;13.792;2023-03-01T14:32:12;24.00;;;11.48;;
75603;SDS011;64187;51.010;13.792;2023-03-01T14:42:18;21.67;;;10.60;;
75603;SDS011;64187;51.010;13.792;2023-03-01T14:47:29;19.63;;;11.05;;
75603;SDS011;64187;51.010;13.792;2023-03-01T14:52:34;22.25;;;11.95;;
75603;SDS011;64187;51.010;13.792;2023-03-01T14:57:38;21.73;;;11.40;;
75603;SDS011;64187;51.010;13.792;2023-03-01T15:07:41;24.13;;;11.88;;
75603;SDS011;64187;51.010;13.792;2023-03-01T15:12:47;20.50;;;11.25;;
75603;SDS011;64187;51.010;13.792;2023-03-01T15:17:49;19.60;;;11.15;;
75603;SDS011;64187;51.010;13.792;2023-03-01T15:22:53;23.55;;;12.52;;
75603;SDS011;64187;51.010;13.792;2023-03-01T15:27:54;22.85;;;12.18;;
75603;SDS011;64187;51.010;13.792;2023-03-01T15:33:30;24.52;;;12.40;;
75603;SDS011;64187;51.010;13.792;2023-03-01T15:38:26;21.63;;;11.60;;
75603;SDS011;64187;51.010;13.792;2023-03-01T15:43:37;21.65;;;10.73;;
75603;SDS011;64187;51.010;13.792;2023-03-01T15:48:36;22.27;;;11.20;;
75603;SDS011;64187;51.010;13.792;2023-03-01T15:53:34;24.73;;;11.82;;
75603;SDS011;64187;51.010;13.792;2023-03-01T15:58:43;22.10;;;11.05;;
75603;SDS011;64187;51.010;13.792;2023-03-01T16:03:43;22.05;;;10.18;;
75603;SDS011;64187;51.010;13.792;2023-03-01T16:08:43;17.65;;;9.68;;
75603;SDS011;64187;51.010;13.792;2023-03-01T16:13:42;19.23;;;10.38;;
75603;SDS011;64187;51.010;13.792;2023-03-01T16:18:42;19.52;;;9.85;;
75603;SDS011;64187;51.010;13.792;2023-03-01T16:23:45;19.23;;;10.48;;
75603;SDS011;64187;51.010;13.792;2023-03-01T16:28:44;19.95;;;10.40;;
75603;SDS011;64187;51.010;13.792;2023-03-01T16:33:44;23.60;;;10.93;;
75603;SDS011;64187;51.010;13.792;2023-03-01T16:38:47;22.45;;;10.35;;
75603;SDS011;64187;51.010;13.792;2023-03-01T16:43:48;23.90;;;12.00;;
75603;SDS011;64187;51.010;13.792;2023-03-01T16:48:48;22.27;;;10.80;;
75603;SDS011;64187;51.010;13.792;2023-03-01T16:53:47;22.38;;;10.15;;
75603;SDS011;64187;51.010;13.792;2023-03-01T16:58:47;19.23;;;10.35;;
75603;SDS011;64187;51.010;13.792;2023-03-01T17:03:46;19.15;;;10.13;;
75603;SDS011;64187;51.010;13.792;2023-03-01T17:08:47;20.85;;;9.55;;
75603;SDS011;64187;51.010;13.792;2023-03-01T17:13:46;20.58;;;10.63;;
75603;SDS011;64187;51.010;13.792;2023-03-01T17:18:47;12.55;;;6.28;;
75603;SDS011;64187;51.010;13.792;2023-03-01T17:23:46;23.50;;;10.43;;
75603;SDS011;64187;51.010;13.792;2023-03-01T17:28:45;23.67;;;11.75;;
75603;SDS011;64187;51.010;13.792;2023-03-01T17:33:49;26.25;;;12.00;;
75603;SDS011;64187;51.010;13.792;2023-03-01T17:38:48;26.45;;;11.80;;
75603;SDS011;64187;51.010;13.792;2023-03-01T17:43:48;25.13;;;12.02;;
75603;SDS011;64187;51.010;13.792;2023-03-01T17:48:47;33.42;;;13.70;;
75603;SDS011;64187;51.010;13.792;2023-03-01T17:53:47;27.55;;;13.32;;
75603;SDS011;64187;51.010;13.792;2023-03-01T17:58:45;24.23;;;13.43;;
75603;SDS011;64187;51.010;13.792;2023-03-01T18:03:44;28.60;;;13.40;;
75603;SDS011;64187;51.010;13.792;2023-03-01T18:08:45;31.33;;;13.82;;
75603;SDS011;64187;51.010;13.792;2023-03-01T18:13:44;28.02;;;13.52;;
75603;SDS011;64187;51.010;13.792;2023-03-01T18:18:45;24.98;;;12.75;;
75603;SDS011;64187;51.010;13.792;2023-03-01T18:23:44;25.88;;;12.25;;
75603;SDS011;64187;51.010;13.792;2023-03-01T18:28:43;24.52;;;11.85;;
75603;SDS011;64187;51.010;13.792;2023-03-01T18:33:45;23.33;;;12.57;;
75603;SDS011;64187;51.010;13.792;2023-03-01T18:38:44;25.00;;;12.05;;
75603;SDS011;64187;51.010;13.792;2023-03-01T18:43:44;25.83;;;13.18;;
75603;SDS011;64187;51.010;13.792;2023-03-01T18:48:42;26.73;;;11.88;;
75603;SDS011;64187;51.010;13.792;2023-03-01T18:53:42;26.15;;;13.15;;
75603;SDS011;64187;51.010;13.792;2023-03-01T18:58:41;27.13;;;13.60;;
75603;SDS011;64187;51.010;13.792;2023-03-01T19:03:41;34.90;;;15.02;;
75603;SDS011;64187;51.010;13.792;2023-03-01T19:08:40;29.20;;;13.15;;
75603;SDS011;64187;51.010;13.792;2023-03-01T19:13:42;29.70;;;13.95;;
75603;SDS011;64187;51.010;13.792;2023-03-01T19:18:45;30.92;;;15.73;;
75603;SDS011;64187;51.010;13.792;2023-03-01T19:28:47;30.30;;;15.32;;
75603;SDS011;64187;51.010;13.792;2023-03-01T19:33:46;35.92;;;16.77;;
75603;SDS011;64187;51.010;13.792;2023-03-01T19:38:46;36.58;;;16.25;;
75603;SDS011;64187;51.010;13.792;2023-03-01T19:43:45;36.15;;;17.55;;
75603;SDS011;64187;51.010;13.792;2023-03-01T19:48:44;35.33;;;17.17;;
75603;SDS011;64187;51.010;13.792;2023-03-01T19:53:44;39.28;;;17.88;;
75603;SDS011;64187;51.010;13.792;2023-03-01T19:58:44;35.85;;;17.38;;
75603;SDS011;64187;51.010;13.792;2023-03-01T20:03:47;42.75;;;19.20;;
75603;SDS011;64187;51.010;13.792;2023-03-01T20:08:46;39.97;;;19.80;;
75603;SDS011;64187;51.010;13.792;2023-03-01T20:13:46;39.00;;;19.10;;
75603;SDS011;64187;51.010;13.792;2023-03-01T20:18:45;43.03;;;19.23;;
75603;SDS011;64187;51.010;13.792;2023-03-01T20:23:44;44.30;;;20.38;;
75603;SDS011;64187;51.010;13.792;2023-03-01T20:28:47;40.97;;;18.30;;
75603;SDS011;64187;51.010;13.792;2023-03-01T20:33:48;46.65;;;20.50;;
75603;SDS011;64187;51.010;13.792;2023-03-01T20:38:47;39.83;;;17.70;;
75603;SDS011;64187;51.010;13.792;2023-03-01T20:43:46;46.88;;;19.15;;
75603;SDS011;64187;51.010;13.792;2023-03-01T20:48:52;41.92;;;17.95;;
75603;SDS011;64187;51.010;13.792;2023-03-01T20:53:51;35.70;;;17.55;;
75603;SDS011;64187;51.010;13.792;2023-03-01T20:58:50;32.55;;;16.80;;
75603;SDS011;64187;51.010;13.792;2023-03-01T21:03:49;40.70;;;17.98;;
75603;SDS011;64187;51.010;13.792;2023-03-01T21:08:49;38.47;;;18.60;;
75603;SDS011;64187;51.010;13.792;2023-03-01T21:13:52;38.75;;;17.60;;
75603;SDS011;64187;51.010;13.792;2023-03-01T21:18:52;34.55;;;16.45;;
75603;SDS011;64187;51.010;13.792;2023-03-01T21:23:51;36.00;;;16.60;;
75603;SDS011;64187;51.010;13.792;2023-03-01T21:28:55;37.78;;;16.67;;
75603;SDS011;64187;51.010;13.792;2023-03-01T21:33:57;39.40;;;16.58;;
75603;SDS011;64187;51.010;13.792;2023-03-01T21:38:57;36.10;;;17.75;;
75603;SDS011;64187;51.010;13.792;2023-03-01T21:43:59;32.40;;;16.92;;
75603;SDS011;64187;51.010;13.792;2023-03-01T21:49:00;38.97;;;18.98;;
75603;SDS011;64187;51.010;13.792;2023-03-01T21:54:02;37.22;;;17.70;;
75603;SDS011;64187;51.010;13.792;2023-03-01T21:59:01;37.83;;;17.92;;
75603;SDS011;64187;51.010;13.792;2023-03-01T22:04:00;40.58;;;17.63;;
75603;SDS011;64187;51.010;13.792;2023-03-01T22:09:07;41.28;;;18.67;;
75603;SDS011;64187;51.010;13.792;2023-03-01T22:14:17;38.80;;;17.98;;
75603;SDS011;64187;51.010;13.792;2023-03-01T22:19:16;41.88;;;16.20;;
75603;SDS011;64187;51.010;13.792;2023-03-01T22:24:17;32.17;;;17.00;;
75603;SDS011;64187;51.010;13.792;2023-03-01T22:29:20;35.45;;;17.15;;
75603;SDS011;64187;51.010;13.792;2023-03-01T22:34:24;37.25;;;16.90;;
75603;SDS011;64187;51.010;13.792;2023-03-01T22:39:23;37.75;;;17.27;;
75603;SDS011;64187;51.010;13.792;2023-03-01T22:44:22;37.72;;;17.98;;
75603;SDS011;64187;51.010;13.792;2023-03-01T22:49:21;37.08;;;16.83;;
75603;SDS011;64187;51.010;13.792;2023-03-01T22:54:20;40.55;;;18.58;;
75603;SDS011;64187;51.010;13.792;2023-03-01T22:59:20;33.25;;;16.58;;
75603;SDS011;64187;51.010;13.792;2023-03-01T23:04:23;30.25;;;14.70;;
75603;SDS011;64187;51.010;13.792;2023-03-01T23:09:26;34.65;;;15.93;;
75603;SDS011;64187;51.010;13.792;2023-03-01T23:14:28;38.53;;;18.40;;
75603;SDS011;64187;51.010;13.792;2023-03-01T23:19:29;33.35;;;16.05;;
75603;SDS011;64187;51.010;13.792;2023-03-01T23:24:28;33.15;;;16.13;;
75603;SDS011;64187;51.010;13.792;2023-03-01T23:29:30;31.27;;;16.25;;
75603;SDS011;64187;51.010;13.792;2023-03-01T23:34:30;32.22;;;15.43;;
75603;SDS011;64187;51.010;13.792;2023-03-01T23:39:29;35.60;;;15.00;;
75603;SDS011;64187;51.010;13.792;2023-03-01T23:44:29;32.00;;;15.10;;
75603;SDS011;64187;51.010;13.792;2023-03-01T23:49:28;30.45;;;14.98;;
75603;SDS011;64187;51.010;13.792;2023-03-01T23:54:27;31.98;;;14.95;;
75603;SDS011;64187;51.010;13.792;2023-03-01T23:59:26;29.15;;;13.32;;
